Time;durP1;ratioP1;P1;durP2;ratioP2;P2;SDS_P1;SDS_P2;PMS_P1;PMS_P2;Temp;Humidity;BMP_temperature;BMP_pressure;BME280_temperature;BME280_humidity;BME280_pressure;Samples;Min_cycle;Max_cycle;Signal;HPM_P1;HPM_P2
2022/11/29 00:01:40;;;;;;;25.97;21.30;;;3.10;99.90;;;;;;5117150;28;20235;-75
2022/11/29 00:04:09;;;;;;;28.90;21.27;;;3.10;99.90;;;;;;5117019;28;20206;-76
2022/11/29 00:06:38;;;;;;;27.90;22.03;;;3.10;99.90;;;;;;5117185;28;20475;-77
2022/11/29 00:09:08;;;;;;;26.97;21.23;;;3.10;99.90;;;;;;5138081;27;20209;-75
2022/11/29 00:14:27;;;;;;;29.10;21.67;;;3.20;99.90;;;;;;5138048;27;20285;-76
2022/11/29 00:16:58;;;;;;;28.60;21.33;;;3.10;99.90;;;;;;5136603;27;20209;-76
2022/11/29 00:19:26;;;;;;;26.60;21.43;;;3.10;99.90;;;;;;5137547;27;20224;-75
2022/11/29 00:21:54;;;;;;;27.07;21.73;;;3.20;99.90;;;;;;5137370;27;20221;-76
2022/11/29 00:24:22;;;;;;;28.00;21.70;;;3.10;99.90;;;;;;5138044;27;20201;-77
2022/11/29 00:26:51;;;;;;;26.83;21.57;;;3.20;99.90;;;;;;5127892;27;20735;-80
2022/11/29 00:29:19;;;;;;;26.00;21.43;;;3.10;99.90;;;;;;5117016;28;20213;-78
2022/11/29 00:31:49;;;;;;;27.87;22.53;;;3.10;99.90;;;;;;5118650;28;20284;-78
2022/11/29 00:34:18;;;;;;;27.93;22.80;;;3.10;99.90;;;;;;5129733;27;20210;-76
2022/11/29 00:36:46;;;;;;;29.67;22.33;;;3.00;99.90;;;;;;5130426;28;20308;-77
2022/11/29 00:39:15;;;;;;;28.67;21.93;;;3.00;99.90;;;;;;5119951;28;20582;-75
2022/11/29 00:41:43;;;;;;;27.90;22.50;;;3.10;99.90;;;;;;5116752;28;20218;-76
2022/11/29 00:44:11;;;;;;;29.83;22.10;;;3.10;99.90;;;;;;5116327;27;20217;-75
2022/11/29 00:46:47;;;;;;;27.97;23.33;;;3.10;99.90;;;;;;5125661;27;20217;-76
2022/11/29 00:49:17;;;;;;;29.00;22.57;;;3.10;99.90;;;;;;5136905;27;20742;-77
2022/11/29 00:51:45;;;;;;;27.63;21.53;;;3.10;99.90;;;;;;5136927;27;20209;-76
2022/11/29 00:54:14;;;;;;;26.87;22.33;;;3.10;99.90;;;;;;5128701;27;20212;-77
2022/11/29 00:56:42;;;;;;;26.60;22.10;;;3.10;99.90;;;;;;5116836;28;20572;-74
2022/11/29 00:59:10;;;;;;;28.00;22.93;;;3.10;99.90;;;;;;5116344;28;20569;-75
2022/11/29 01:01:39;;;;;;;28.67;22.87;;;3.10;99.90;;;;;;5116233;28;20561;-74
2022/11/29 01:04:07;;;;;;;29.80;22.90;;;3.20;99.90;;;;;;5115885;27;20747;-74
2022/11/29 01:06:37;;;;;;;29.03;22.10;;;3.20;99.90;;;;;;5133360;27;20217;-75
2022/11/29 01:09:05;;;;;;;28.17;21.80;;;3.20;99.90;;;;;;5136828;27;20213;-75
2022/11/29 01:11:33;;;;;;;28.70;21.80;;;3.20;99.90;;;;;;5136876;27;20677;-76
2022/11/29 01:14:03;;;;;;;27.50;21.67;;;3.30;99.90;;;;;;5119028;27;20244;-75
2022/11/29 01:16:32;;;;;;;27.43;22.33;;;3.20;99.90;;;;;;5115994;28;20218;-75
2022/11/29 01:19:01;;;;;;;26.07;21.23;;;3.30;99.90;;;;;;5116166;28;20259;-75
2022/11/29 01:21:29;;;;;;;26.57;21.43;;;3.20;99.90;;;;;;5119073;27;20241;-76
2022/11/29 01:24:00;;;;;;;26.57;21.53;;;3.20;99.90;;;;;;5136356;27;20226;-75
2022/11/29 01:26:30;;;;;;;28.20;22.53;;;3.20;99.90;;;;;;5136306;27;20774;-77
2022/11/29 01:28:59;;;;;;;29.10;22.77;;;3.10;99.90;;;;;;5136434;27;20690;-74
2022/11/29 01:31:30;;;;;;;28.70;22.93;;;3.10;99.90;;;;;;5135039;27;20216;-76
2022/11/29 01:33:59;;;;;;;27.73;23.00;;;3.10;99.90;;;;;;5136078;27;20210;-76
2022/11/29 01:36:28;;;;;;;30.83;23.37;;;3.00;99.90;;;;;;5136171;27;20198;-75
2022/11/29 01:39:00;;;;;;;30.37;23.87;;;2.90;99.90;;;;;;5135935;27;20213;-76
2022/11/29 01:41:31;;;;;;;31.50;22.77;;;3.00;99.90;;;;;;5115734;27;20241;-75
2022/11/29 01:44:07;;;;;;;28.37;22.20;;;2.90;99.90;;;;;;5115127;28;20229;-76
2022/11/29 01:46:38;;;;;;;29.57;23.07;;;2.90;99.90;;;;;;5134924;27;20209;-76
2022/11/29 01:49:11;;;;;;;33.40;23.17;;;2.90;99.90;;;;;;5135148;27;20212;-74
2022/11/29 01:51:44;;;;;;;31.30;23.17;;;3.00;99.90;;;;;;5136179;27;20636;-78
2022/11/29 01:54:14;;;;;;;28.67;22.57;;;2.90;99.90;;;;;;5136058;27;20241;-76
2022/11/29 01:56:45;;;;;;;30.20;23.80;;;2.90;99.90;;;;;;5136143;27;20217;-75
2022/11/29 01:59:16;;;;;;;29.97;23.07;;;2.90;99.90;;;;;;5134663;27;20209;-75
2022/11/29 02:01:45;;;;;;;29.33;23.27;;;2.80;99.90;;;;;;5135743;27;20212;-76
2022/11/29 02:04:15;;;;;;;30.67;24.07;;;2.80;99.90;;;;;;5135606;27;20225;-77
2022/11/29 02:06:43;;;;;;;30.97;23.43;;;2.80;99.90;;;;;;5133716;27;20209;-74
2022/11/29 02:09:19;;;;;;;32.57;24.63;;;2.80;99.90;;;;;;5135471;27;20211;-76
2022/11/29 02:12:05;;;;;;;30.40;23.57;;;2.70;99.90;;;;;;5135421;27;20298;-75
2022/11/29 02:15:01;;;;;;;33.87;25.30;;;2.80;99.90;;;;;;5121292;27;20676;-78
2022/11/29 02:17:36;;;;;;;30.47;23.83;;;2.80;99.90;;;;;;5113984;28;20214;-75
2022/11/29 02:20:54;;;;;;;31.40;23.90;;;2.80;99.90;;;;;;5114346;28;20607;-74
2022/11/29 02:23:55;;;;;;;30.13;23.77;;;2.80;99.90;;;;;;5130059;27;20221;-77
2022/11/29 02:26:49;;;;;;;29.23;23.30;;;2.80;99.90;;;;;;5135355;27;20213;-77
2022/11/29 02:29:49;;;;;;;33.83;24.73;;;2.70;99.90;;;;;;5135486;27;20186;-74
2022/11/29 02:32:49;;;;;;;30.37;22.93;;;2.80;99.90;;;;;;5114412;27;20268;-76
2022/11/29 02:35:33;;;;;;;31.23;24.60;;;2.80;99.90;;;;;;5115444;28;20217;-76
2022/11/29 02:38:18;;;;;;;32.30;24.10;;;2.80;99.90;;;;;;5115341;28;20294;-77
2022/11/29 02:41:00;;;;;;;29.30;23.83;;;2.80;99.90;;;;;;5131412;28;20205;-80
2022/11/29 02:43:59;;;;;;;27.77;22.37;;;2.80;99.90;;;;;;5132420;27;20709;-77
2022/11/29 02:46:51;;;;;;;29.30;22.93;;;2.80;99.90;;;;;;5138964;27;20617;-75
2022/11/29 02:49:33;;;;;;;29.97;23.50;;;2.80;99.90;;;;;;5122587;28;20205;-76
2022/11/29 02:52:07;;;;;;;30.37;23.60;;;2.90;99.90;;;;;;5137827;28;20205;-78
2022/11/29 02:54:46;;;;;;;29.27;22.93;;;2.90;99.90;;;;;;5137958;28;20194;-74
2022/11/29 02:57:28;;;;;;;30.53;23.70;;;2.80;99.90;;;;;;5111318;27;20700;-77
2022/11/29 03:00:02;;;;;;;30.03;21.97;;;2.90;99.90;;;;;;5135002;27;20205;-74
2022/11/29 03:02:38;;;;;;;29.53;23.47;;;2.90;99.90;;;;;;5134567;27;20211;-76
2022/11/29 03:05:22;;;;;;;29.40;22.93;;;2.80;99.90;;;;;;5134930;27;20201;-75
2022/11/29 03:07:56;;;;;;;27.73;22.70;;;2.90;99.90;;;;;;5114327;28;20202;-76
2022/11/29 03:10:33;;;;;;;30.83;22.87;;;2.90;99.90;;;;;;5114266;28;20214;-76
2022/11/29 03:13:05;;;;;;;25.97;21.77;;;2.80;99.90;;;;;;5113221;28;20779;-75
2022/11/29 03:15:41;;;;;;;29.30;22.67;;;2.90;99.90;;;;;;5113905;28;20519;-76
2022/11/29 03:18:28;;;;;;;30.60;23.50;;;2.90;99.90;;;;;;5131699;27;20204;-77
2022/11/29 03:21:09;;;;;;;27.33;22.17;;;2.90;99.90;;;;;;5133977;27;20205;-76
2022/11/29 03:23:41;;;;;;;29.67;23.23;;;3.00;99.90;;;;;;5132104;27;20224;-75
2022/11/29 03:26:14;;;;;;;26.47;21.57;;;2.90;99.90;;;;;;5132769;27;20206;-76
2022/11/29 03:28:46;;;;;;;28.20;22.57;;;2.90;99.90;;;;;;5133551;27;20215;-75
2022/11/29 03:31:21;;;;;;;28.97;22.80;;;3.00;99.90;;;;;;5133871;27;20212;-76
2022/11/29 03:33:57;;;;;;;26.30;21.67;;;2.90;99.90;;;;;;5117740;27;20256;-75
2022/11/29 03:36:36;;;;;;;28.53;22.07;;;3.00;99.90;;;;;;5119325;28;20291;-75
2022/11/29 03:39:11;;;;;;;28.57;22.20;;;3.00;99.90;;;;;;5133848;28;20197;-75
2022/11/29 03:41:46;;;;;;;26.90;21.83;;;3.00;99.90;;;;;;5133496;28;20635;-74
2022/11/29 03:44:18;;;;;;;28.60;21.93;;;2.90;99.90;;;;;;5131611;28;20231;-76
2022/11/29 03:46:54;;;;;;;28.57;22.07;;;2.90;99.90;;;;;;5113433;28;20277;-75
2022/11/29 03:49:26;;;;;;;26.53;21.87;;;3.00;99.90;;;;;;5132691;28;20568;-76
2022/11/29 03:52:03;;;;;;;30.27;21.97;;;3.00;99.90;;;;;;5133112;28;20635;-76
2022/11/29 03:54:42;;;;;;;27.90;22.03;;;3.00;99.90;;;;;;5113547;28;20637;-76
2022/11/29 03:57:12;;;;;;;27.53;21.53;;;3.00;99.90;;;;;;5113317;28;20198;-76
2022/11/29 03:59:52;;;;;;;28.20;21.37;;;3.00;99.90;;;;;;5113196;28;20210;-77
2022/11/29 04:02:52;;;;;;;24.27;20.37;;;3.00;99.90;;;;;;5113179;28;20210;-76
2022/11/29 04:05:46;;;;;;;28.47;21.63;;;3.00;99.90;;;;;;5112797;28;20694;-75
2022/11/29 04:08:59;;;;;;;25.53;20.93;;;3.00;99.90;;;;;;5113220;28;20582;-77
2022/11/29 04:11:54;;;;;;;26.80;21.17;;;3.00;99.90;;;;;;5050211;28;20672;-76
2022/11/29 04:14:34;;;;;;;28.30;21.80;;;3.00;99.90;;;;;;5113357;28;20187;-75
2022/11/29 04:17:38;;;;;;;27.97;21.57;;;3.00;99.90;;;;;;5113464;28;20664;-76
2022/11/29 04:20:35;;;;;;;28.03;20.70;;;3.10;99.90;;;;;;5112815;28;20205;-77
2022/11/29 04:23:32;;;;;;;25.37;20.47;;;3.10;99.90;;;;;;5104674;28;20684;-74
2022/11/29 04:26:34;;;;;;;26.43;20.93;;;3.10;99.90;;;;;;5112962;28;20206;-76
2022/11/29 04:29:24;;;;;;;25.40;20.03;;;3.10;99.90;;;;;;5113418;28;20293;-77
2022/11/29 04:32:20;;;;;;;27.47;21.20;;;3.10;99.90;;;;;;5096628;28;20662;-76
2022/11/29 04:35:00;;;;;;;28.23;20.93;;;3.10;99.90;;;;;;5112686;28;20193;-78
2022/11/29 04:37:52;;;;;;;26.27;21.10;;;3.10;99.90;;;;;;5115963;28;20225;-76
2022/11/29 04:40:41;;;;;;;25.67;21.37;;;3.20;99.90;;;;;;5090732;27;20206;-77
2022/11/29 04:43:34;;;;;;;27.50;22.40;;;3.20;99.90;;;;;;5150418;27;20218;-76
2022/11/29 04:46:36;;;;;;;25.60;20.93;;;3.20;99.90;;;;;;5115860;28;20348;-76
2022/11/29 04:49:25;;;;;;;28.37;21.90;;;3.10;99.90;;;;;;5116591;28;20220;-77
2022/11/29 04:52:14;;;;;;;26.97;21.60;;;3.10;99.90;;;;;;5099770;28;20210;-76
2022/11/29 04:54:49;;;;;;;28.53;22.10;;;3.10;99.90;;;;;;5116134;27;20656;-77
2022/11/29 04:57:25;;;;;;;31.67;22.77;;;3.10;99.90;;;;;;5116364;28;20209;-75
2022/11/29 05:00:06;;;;;;;28.73;21.90;;;3.10;99.90;;;;;;5116407;28;20727;-77
2022/11/29 05:02:41;;;;;;;27.80;22.23;;;3.10;99.90;;;;;;5116800;28;20670;-75
2022/11/29 05:05:21;;;;;;;25.70;21.47;;;3.10;99.90;;;;;;5127653;27;20236;-77
2022/11/29 05:08:00;;;;;;;26.43;21.60;;;3.10;99.90;;;;;;5136259;27;20224;-76
2022/11/29 05:10:33;;;;;;;29.43;21.93;;;3.10;99.90;;;;;;5136812;27;20686;-75
2022/11/29 05:13:11;;;;;;;29.63;23.10;;;3.10;99.90;;;;;;5136732;27;20734;-77
2022/11/29 05:16:07;;;;;;;27.87;21.93;;;3.10;99.90;;;;;;5116185;28;20220;-76
2022/11/29 05:19:09;;;;;;;25.93;21.30;;;3.10;99.90;;;;;;5112553;28;20214;-77
2022/11/29 05:21:47;;;;;;;30.57;22.83;;;3.00;99.90;;;;;;5115379;28;20565;-75
2022/11/29 05:24:27;;;;;;;27.83;22.03;;;3.00;99.90;;;;;;5115603;28;20221;-76
2022/11/29 05:27:01;;;;;;;27.27;22.27;;;3.10;99.90;;;;;;5115761;28;20541;-74
2022/11/29 05:29:35;;;;;;;28.67;22.43;;;3.10;99.90;;;;;;5116060;28;20574;-76
2022/11/29 05:32:22;;;;;;;29.50;22.87;;;3.00;99.90;;;;;;5115887;28;20197;-76
2022/11/29 05:35:17;;;;;;;27.50;22.77;;;3.10;99.90;;;;;;5115996;28;20220;-75
2022/11/29 05:37:50;;;;;;;28.83;22.80;;;3.10;99.90;;;;;;5106134;28;20206;-76
2022/11/29 05:40:41;;;;;;;29.50;22.83;;;3.10;99.90;;;;;;5134580;27;20292;-76
2022/11/29 05:43:22;;;;;;;29.57;23.30;;;3.00;99.90;;;;;;5136257;27;20218;-76
2022/11/29 05:45:56;;;;;;;30.13;22.67;;;3.00;99.90;;;;;;5135670;27;20324;-73
2022/11/29 05:48:31;;;;;;;27.47;22.30;;;3.00;99.90;;;;;;5134649;27;20296;-73
2022/11/29 05:51:10;;;;;;;30.53;22.77;;;3.00;99.90;;;;;;5135828;27;20244;-75
2022/11/29 05:53:47;;;;;;;29.20;23.07;;;3.10;99.90;;;;;;5135953;27;20221;-77
2022/11/29 05:56:24;;;;;;;29.60;23.27;;;3.10;99.90;;;;;;5140371;27;20185;-78
2022/11/29 05:58:56;;;;;;;26.87;22.30;;;3.10;99.90;;;;;;5120202;27;20292;-78
2022/11/29 06:01:30;;;;;;;27.70;22.03;;;3.10;99.90;;;;;;5140373;27;20198;-77
2022/11/29 06:04:05;;;;;;;30.40;23.33;;;3.10;99.90;;;;;;5138991;27;20194;-77
2022/11/29 06:06:46;;;;;;;29.20;22.33;;;3.10;99.90;;;;;;5138056;27;20182;-77
2022/11/29 06:09:20;;;;;;;26.77;22.63;;;3.10;99.90;;;;;;5136180;27;20285;-78
2022/11/29 06:12:01;;;;;;;27.67;22.37;;;3.10;99.90;;;;;;5139477;27;20233;-77
2022/11/29 06:14:51;;;;;;;28.17;22.90;;;3.10;99.90;;;;;;5137105;27;20198;-76
2022/11/29 06:17:41;;;;;;;28.60;22.47;;;3.10;99.90;;;;;;5139763;27;20293;-79
2022/11/29 06:20:42;;;;;;;28.23;22.17;;;3.10;99.90;;;;;;5136642;27;20748;-76
2022/11/29 06:23:28;;;;;;;29.07;21.77;;;3.10;99.90;;;;;;5133663;27;20284;-76
2022/11/29 06:26:17;;;;;;;27.40;21.80;;;3.20;99.90;;;;;;5134164;27;20594;-75
2022/11/29 06:28:57;;;;;;;29.30;22.17;;;3.10;99.90;;;;;;5120500;27;20198;-76
2022/11/29 06:31:31;;;;;;;27.17;21.43;;;3.20;99.90;;;;;;5134267;27;20659;-78
2022/11/29 06:34:07;;;;;;;26.63;21.23;;;3.20;99.90;;;;;;5152056;27;20296;-77
2022/11/29 06:36:44;;;;;;;26.23;21.97;;;3.20;99.90;;;;;;5142731;27;20229;-77
2022/11/29 06:39:13;;;;;;;27.47;22.00;;;3.20;99.90;;;;;;5132655;27;20205;-77
2022/11/29 06:41:42;;;;;;;27.63;22.73;;;3.20;99.90;;;;;;5134062;27;20221;-77
2022/11/29 06:44:11;;;;;;;29.07;22.70;;;3.20;99.90;;;;;;5134953;27;20599;-75
2022/11/29 06:46:46;;;;;;;28.40;22.40;;;3.20;99.90;;;;;;5132379;27;20244;-75
2022/11/29 06:49:22;;;;;;;27.43;22.17;;;3.10;99.90;;;;;;5135483;27;20208;-76
2022/11/29 06:52:07;;;;;;;31.63;23.20;;;3.10;99.90;;;;;;5136223;27;20217;-78
2022/11/29 06:54:48;;;;;;;28.67;23.30;;;3.20;99.90;;;;;;5121671;27;20206;-77
2022/11/29 06:57:26;;;;;;;30.20;23.77;;;3.20;99.90;;;;;;5117962;28;20218;-78
2022/11/29 07:00:10;;;;;;;33.10;25.73;;;3.20;99.90;;;;;;5118086;28;20216;-78
2022/11/29 07:03:10;;;;;;;27.70;23.63;;;3.30;99.90;;;;;;5127388;28;20255;-76
2022/11/29 07:05:39;;;;;;;36.17;27.57;;;3.20;99.90;;;;;;5125982;28;20248;-76
2022/11/29 07:08:15;;;;;;;30.27;23.60;;;3.20;99.90;;;;;;5119948;28;20206;-76
2022/11/29 07:10:45;;;;;;;29.60;23.17;;;3.20;99.90;;;;;;5117548;27;20209;-77
2022/11/29 07:13:14;;;;;;;28.53;23.57;;;3.20;99.90;;;;;;5134308;27;20272;-77
2022/11/29 07:15:53;;;;;;;29.20;23.27;;;3.20;99.90;;;;;;5134835;27;20642;-75
2022/11/29 07:18:31;;;;;;;30.37;23.60;;;3.20;99.90;;;;;;5133175;27;20209;-78
2022/11/29 07:21:09;;;;;;;30.53;24.00;;;3.20;99.90;;;;;;5134259;27;20371;-77
2022/11/29 07:23:45;;;;;;;29.80;24.17;;;3.20;99.90;;;;;;5133756;27;20282;-75
2022/11/29 07:26:21;;;;;;;31.13;23.60;;;3.20;99.90;;;;;;5133980;27;20225;-77
2022/11/29 07:29:11;;;;;;;32.90;23.80;;;3.30;99.90;;;;;;5119034;27;20623;-75
2022/11/29 07:31:49;;;;;;;29.00;24.10;;;3.30;99.90;;;;;;5130347;27;20288;-77
2022/11/29 07:34:25;;;;;;;30.97;25.30;;;3.30;99.90;;;;;;5134102;27;20197;-79
2022/11/29 07:37:01;;;;;;;30.03;24.33;;;3.30;99.90;;;;;;5131789;27;20202;-77
2022/11/29 07:39:43;;;;;;;28.10;22.10;;;3.50;99.90;;;;;;5132885;27;20275;-79
2022/11/29 07:42:22;;;;;;;31.70;24.03;;;3.40;99.90;;;;;;5132350;27;20276;-78
2022/11/29 07:44:59;;;;;;;32.03;24.27;;;3.40;99.90;;;;;;5134560;28;20284;-76
2022/11/29 07:47:28;;;;;;;28.33;23.53;;;3.30;99.90;;;;;;5118286;28;20581;-74
2022/11/29 07:50:03;;;;;;;29.53;23.83;;;3.40;99.90;;;;;;5113508;28;20317;-77
2022/11/29 07:52:31;;;;;;;30.77;24.17;;;3.40;99.90;;;;;;5112713;28;20721;-76
2022/11/29 07:55:01;;;;;;;27.90;23.70;;;3.40;99.90;;;;;;5125889;28;20296;-76
2022/11/29 07:57:30;;;;;;;31.23;23.60;;;3.50;99.90;;;;;;5133797;28;20280;-75
2022/11/29 07:59:58;;;;;;;29.10;23.93;;;3.50;99.90;;;;;;5133684;28;20198;-76
2022/11/29 08:02:27;;;;;;;29.50;23.10;;;3.60;99.90;;;;;;5131275;27;20309;-75
2022/11/29 08:04:56;;;;;;;30.97;24.00;;;3.50;99.90;;;;;;5119166;28;20210;-74
2022/11/29 08:07:25;;;;;;;30.17;23.50;;;3.60;99.90;;;;;;5111353;28;20202;-76
2022/11/29 08:10:00;;;;;;;32.67;25.77;;;3.60;99.90;;;;;;5125059;28;20281;-76
2022/11/29 08:12:29;;;;;;;33.23;25.53;;;3.60;99.90;;;;;;5117506;28;20218;-77
2022/11/29 08:14:57;;;;;;;34.07;26.37;;;3.70;99.90;;;;;;5112223;28;20218;-77
2022/11/29 08:17:25;;;;;;;30.43;24.27;;;3.60;99.90;;;;;;5114170;28;20283;-75
2022/11/29 08:19:53;;;;;;;25.33;22.13;;;3.70;99.90;;;;;;5114884;28;20198;-74
2022/11/29 08:22:26;;;;;;;31.00;23.10;;;3.60;99.90;;;;;;5114438;27;20301;-74
2022/11/29 08:24:54;;;;;;;30.53;24.43;;;3.60;99.90;;;;;;5116855;28;20575;-73
2022/11/29 08:27:24;;;;;;;31.13;24.17;;;3.60;99.90;;;;;;5116163;28;20329;-75
2022/11/29 08:29:52;;;;;;;30.23;23.93;;;3.60;99.90;;;;;;5116788;27;20207;-76
2022/11/29 08:32:21;;;;;;;29.70;23.60;;;3.60;99.90;;;;;;5115822;28;20660;-74
2022/11/29 08:34:50;;;;;;;27.97;23.57;;;3.70;99.90;;;;;;5118500;27;20255;-76
2022/11/29 08:37:18;;;;;;;32.57;25.63;;;3.70;99.90;;;;;;5136463;27;20193;-77
2022/11/29 08:39:46;;;;;;;32.60;26.30;;;3.40;99.90;;;;;;5135088;27;20293;-78
2022/11/29 08:42:15;;;;;;;30.93;25.37;;;3.60;99.90;;;;;;5142022;27;20248;-76
2022/11/29 08:44:44;;;;;;;34.07;26.70;;;3.60;99.90;;;;;;5147244;27;20229;-76
2022/11/29 08:50:01;;;;;;;31.07;25.60;;;3.50;99.90;;;;;;5116531;28;20619;-77
2022/11/29 08:55:17;;;;;;;32.23;25.27;;;3.60;99.90;;;;;;5115515;28;20213;-75
2022/11/29 08:57:46;;;;;;;30.30;24.90;;;3.60;99.90;;;;;;5116419;28;20202;-76
2022/11/29 09:00:16;;;;;;;31.47;25.47;;;3.60;99.90;;;;;;5122331;27;20622;-76
2022/11/29 09:02:45;;;;;;;29.17;24.83;;;3.70;99.90;;;;;;5135940;27;20632;-77
2022/11/29 09:05:13;;;;;;;28.30;23.53;;;3.60;99.90;;;;;;5135223;27;20663;-76
2022/11/29 09:07:42;;;;;;;28.63;24.03;;;3.70;99.90;;;;;;5134522;27;20690;-76
2022/11/29 09:10:11;;;;;;;36.53;28.57;;;3.70;99.90;;;;;;5127777;27;20212;-77
2022/11/29 09:12:43;;;;;;;27.73;22.60;;;3.70;99.90;;;;;;5134959;27;20252;-74
2022/11/29 09:15:11;;;;;;;29.53;23.10;;;3.60;99.90;;;;;;5122031;27;20210;-75
2022/11/29 09:17:41;;;;;;;27.00;22.93;;;3.70;99.90;;;;;;5116152;28;20202;-75
2022/11/29 09:20:10;;;;;;;29.17;23.07;;;3.80;99.90;;;;;;5115733;28;20300;-74
2022/11/29 09:22:38;;;;;;;26.43;22.80;;;3.90;99.90;;;;;;5115128;27;20306;-74
2022/11/29 09:25:07;;;;;;;25.97;22.10;;;3.90;99.90;;;;;;5115583;28;20238;-76
2022/11/29 09:27:35;;;;;;;27.10;21.57;;;3.90;99.90;;;;;;5116142;28;20257;-75
2022/11/29 09:30:04;;;;;;;26.07;21.10;;;3.90;99.90;;;;;;5115907;28;20212;-77
2022/11/29 09:32:34;;;;;;;26.50;21.70;;;3.90;99.90;;;;;;5117741;27;20216;-75
2022/11/29 09:35:04;;;;;;;50.73;39.33;;;3.90;99.90;;;;;;5118896;27;20304;-75
2022/11/29 09:37:33;;;;;;;24.10;21.53;;;3.90;99.90;;;;;;5126890;27;20213;-75
2022/11/29 09:40:02;;;;;;;27.67;21.83;;;4.00;99.90;;;;;;5135869;27;20236;-74
2022/11/29 09:42:47;;;;;;;24.43;20.00;;;4.00;99.90;;;;;;5135312;27;20286;-78
2022/11/29 09:45:20;;;;;;;28.70;21.03;;;4.00;99.90;;;;;;5133390;27;20300;-75
2022/11/29 09:48:03;;;;;;;24.93;20.90;;;4.10;99.90;;;;;;5115294;28;20226;-75
2022/11/29 09:50:35;;;;;;;23.63;20.60;;;4.10;99.90;;;;;;5114770;28;20677;-75
2022/11/29 09:53:21;;;;;;;23.37;20.73;;;4.10;99.90;;;;;;5114369;27;20305;-75
2022/11/29 09:55:59;;;;;;;24.30;20.90;;;4.10;99.90;;;;;;5114721;28;20202;-74
2022/11/29 09:58:33;;;;;;;27.93;21.63;;;4.10;99.90;;;;;;5115091;28;20269;-74
2022/11/29 10:01:06;;;;;;;23.80;20.40;;;4.20;99.90;;;;;;5115100;27;20605;-74
2022/11/29 10:03:38;;;;;;;23.43;19.93;;;4.20;99.90;;;;;;5114962;28;20616;-74
2022/11/29 10:06:21;;;;;;;23.17;20.57;;;4.20;99.90;;;;;;5133533;27;20209;-74
2022/11/29 10:08:53;;;;;;;21.27;18.63;;;4.30;99.90;;;;;;5135064;27;20213;-74
2022/11/29 10:11:27;;;;;;;21.53;18.80;;;4.40;99.90;;;;;;5137368;27;20217;-77
2022/11/29 10:13:59;;;;;;;23.93;20.63;;;4.30;99.90;;;;;;5135439;28;20238;-76
2022/11/29 10:16:37;;;;;;;22.23;19.93;;;4.40;99.90;;;;;;5133014;28;20202;-77
2022/11/29 10:19:15;;;;;;;23.87;20.47;;;4.40;99.90;;;;;;5125819;28;20319;-75
2022/11/29 10:21:53;;;;;;;25.13;21.00;;;4.50;99.90;;;;;;5117755;28;20197;-76
2022/11/29 10:24:24;;;;;;;24.27;20.40;;;4.50;99.90;;;;;;5115221;28;20247;-75
2022/11/29 10:26:55;;;;;;;22.97;19.40;;;4.50;99.90;;;;;;5114872;28;20307;-73
2022/11/29 10:29:24;;;;;;;22.13;19.73;;;4.60;99.90;;;;;;5124699;27;20209;-73
2022/11/29 10:31:55;;;;;;;25.53;20.17;;;4.50;99.90;;;;;;5134132;27;20215;-76
2022/11/29 10:34:25;;;;;;;22.13;19.53;;;4.50;99.90;;;;;;5135054;27;20483;-74
2022/11/29 10:36:58;;;;;;;25.10;21.90;;;4.60;99.90;;;;;;5134606;27;20629;-76
2022/11/29 10:39:41;;;;;;;21.30;19.03;;;4.70;99.90;;;;;;5129973;27;20631;-74
2022/11/29 10:44:59;;;;;;;21.10;18.87;;;4.70;99.90;;;;;;5129944;27;20652;-74
2022/11/29 10:47:27;;;;;;;24.37;20.23;;;4.70;99.90;;;;;;5132794;27;20232;-74
2022/11/29 10:49:55;;;;;;;23.97;20.90;;;4.60;99.90;;;;;;5134122;27;20566;-75
2022/11/29 10:52:25;;;;;;;24.07;21.47;;;4.70;99.90;;;;;;5132946;27;20296;-73
2022/11/29 10:54:56;;;;;;;26.43;22.53;;;4.60;99.90;;;;;;5133396;27;20331;-75
2022/11/29 10:57:26;;;;;;;22.60;20.30;;;4.50;99.90;;;;;;5133315;27;20543;-76
2022/11/29 11:00:02;;;;;;;24.63;22.03;;;4.60;99.90;;;;;;5133117;27;20233;-74
2022/11/29 11:02:32;;;;;;;23.43;20.93;;;4.60;99.90;;;;;;5132724;27;20292;-75
2022/11/29 11:05:01;;;;;;;22.23;19.90;;;4.50;99.90;;;;;;5132616;27;20605;-75
2022/11/29 11:07:34;;;;;;;25.67;22.20;;;4.50;99.90;;;;;;5133943;27;20229;-74
2022/11/29 11:10:05;;;;;;;26.30;22.20;;;4.50;99.90;;;;;;5113683;28;20237;-73
2022/11/29 11:12:35;;;;;;;25.27;21.97;;;4.60;99.90;;;;;;5120949;27;20831;-74
2022/11/29 11:15:16;;;;;;;25.03;21.47;;;4.60;99.90;;;;;;5133990;27;20197;-74
2022/11/29 11:17:57;;;;;;;25.37;22.13;;;4.70;99.90;;;;;;5126423;27;20208;-75
2022/11/29 11:20:27;;;;;;;24.60;21.37;;;4.70;99.90;;;;;;5134244;27;20209;-75
2022/11/29 11:22:59;;;;;;;24.53;21.20;;;4.80;99.90;;;;;;5132381;27;20659;-75
2022/11/29 11:25:33;;;;;;;24.93;21.53;;;4.70;99.90;;;;;;5133561;27;20194;-77
2022/11/29 11:28:16;;;;;;;23.00;20.50;;;4.70;99.90;;;;;;5113359;28;20209;-76
2022/11/29 11:30:51;;;;;;;24.07;20.33;;;4.80;99.90;;;;;;5113069;28;20241;-76
2022/11/29 11:33:24;;;;;;;24.07;20.57;;;4.70;99.90;;;;;;5113306;28;20572;-75
2022/11/29 11:36:12;;;;;;;23.07;20.57;;;4.80;99.90;;;;;;5125434;27;20244;-75
2022/11/29 11:38:50;;;;;;;21.30;18.93;;;4.80;99.90;;;;;;5134073;27;20503;-75
2022/11/29 11:42:35;;;;;;;22.63;20.17;;;4.80;99.90;;;;;;5133077;27;20597;-75
2022/11/29 11:44:28;;;;;;;28.13;24.97;;;4.70;99.90;;;;;;5131941;27;20289;-75
2022/11/29 11:47:20;;;;;;;25.00;22.30;;;4.70;99.90;;;;;;5133405;28;20247;-74
2022/11/29 11:49:53;;;;;;;23.70;21.10;;;4.70;99.90;;;;;;5140375;27;20559;-73
2022/11/29 11:52:24;;;;;;;24.70;21.93;;;4.80;99.90;;;;;;5118412;27;20220;-75
2022/11/29 11:54:59;;;;;;;24.10;21.60;;;4.70;99.90;;;;;;5136856;27;20545;-75
2022/11/29 11:57:28;;;;;;;22.53;19.63;;;4.80;99.90;;;;;;5137939;27;20219;-77
2022/11/29 11:59:58;;;;;;;24.57;20.90;;;4.80;99.90;;;;;;5126155;27;20206;-75
2022/11/29 12:02:38;;;;;;;22.27;19.60;;;4.90;99.90;;;;;;5117123;28;20224;-77
2022/11/29 12:05:13;;;;;;;23.73;21.10;;;4.80;99.90;;;;;;5117226;28;20288;-75
2022/11/29 12:07:46;;;;;;;24.33;21.57;;;4.80;99.90;;;;;;5117435;27;20691;-73
2022/11/29 12:10:39;;;;;;;24.97;22.27;;;4.70;99.90;;;;;;5116697;28;20212;-74
2022/11/29 12:13:19;;;;;;;33.47;28.90;;;4.70;99.90;;;;;;5116622;28;20257;-77
2022/11/29 12:15:50;;;;;;;30.23;24.17;;;4.70;99.90;;;;;;5099734;28;20213;-75
2022/11/29 12:18:24;;;;;;;24.87;21.70;;;4.70;99.90;;;;;;5130539;27;20728;-74
2022/11/29 12:20:57;;;;;;;25.93;22.43;;;4.70;99.90;;;;;;5139004;27;20190;-75
2022/11/29 12:23:37;;;;;;;26.60;23.73;;;4.80;99.90;;;;;;5151971;27;20249;-75
2022/11/29 12:26:16;;;;;;;27.10;23.00;;;4.80;99.90;;;;;;5152793;27;20190;-76
2022/11/29 12:29:11;;;;;;;27.00;22.13;;;4.80;99.90;;;;;;5141110;27;20274;-76
2022/11/29 12:31:53;;;;;;;24.73;21.73;;;4.90;99.90;;;;;;5138105;28;20199;-75
2022/11/29 12:34:44;;;;;;;26.60;22.40;;;4.90;99.90;;;;;;5128624;28;20191;-74
2022/11/29 12:37:21;;;;;;;29.10;23.67;;;4.90;99.90;;;;;;5117718;27;20233;-75
2022/11/29 12:39:57;;;;;;;31.13;25.40;;;4.90;99.90;;;;;;5117084;28;20229;-76
2022/11/29 12:42:38;;;;;;;29.87;23.87;;;4.90;99.90;;;;;;5118221;27;20581;-77
2022/11/29 12:45:23;;;;;;;27.77;22.57;;;4.90;99.90;;;;;;5130934;27;20201;-77
2022/11/29 12:48:07;;;;;;;28.67;22.93;;;4.90;99.90;;;;;;5129822;27;20229;-79
2022/11/29 12:50:44;;;;;;;29.47;25.17;;;4.70;99.90;;;;;;5124187;27;20285;-78
2022/11/29 12:53:29;;;;;;;28.73;24.77;;;4.80;99.90;;;;;;5117828;28;20214;-76
2022/11/29 12:56:12;;;;;;;30.07;24.13;;;4.80;99.90;;;;;;5127355;27;20240;-75
2022/11/29 12:58:56;;;;;;;26.73;23.53;;;4.70;99.90;;;;;;5137251;27;20201;-74
2022/11/29 13:01:33;;;;;;;27.17;22.93;;;4.70;99.90;;;;;;5127873;27;20219;-74
2022/11/29 13:04:13;;;;;;;29.77;24.40;;;4.80;99.90;;;;;;5129934;27;20189;-75
2022/11/29 13:06:48;;;;;;;28.23;24.20;;;4.80;99.90;;;;;;5116001;28;20218;-73
2022/11/29 13:10:02;;;;;;;30.20;24.27;;;4.80;99.90;;;;;;5116325;27;20308;-73
2022/11/29 13:12:36;;;;;;;32.87;26.17;;;4.90;99.90;;;;;;5050281;28;20224;-73
2022/11/29 13:15:14;;;;;;;31.63;26.30;;;4.80;99.90;;;;;;5110704;28;20296;-74
2022/11/29 13:17:50;;;;;;;33.67;26.73;;;4.80;99.90;;;;;;5115408;28;20723;-73
2022/11/29 13:20:32;;;;;;;31.47;26.17;;;4.80;99.90;;;;;;5115451;28;20206;-73
2022/11/29 13:23:12;;;;;;;30.27;24.97;;;4.80;99.90;;;;;;5123116;27;20190;-77
2022/11/29 13:25:43;;;;;;;32.63;27.17;;;4.70;99.90;;;;;;5135982;27;20564;-72
2022/11/29 13:28:20;;;;;;;29.47;24.87;;;4.80;99.90;;;;;;5135647;27;20321;-77
2022/11/29 13:30:50;;;;;;;30.17;25.63;;;4.70;99.90;;;;;;5135986;27;20296;-74
2022/11/29 13:33:27;;;;;;;29.83;25.57;;;4.70;99.90;;;;;;5134496;27;20288;-72
2022/11/29 13:36:07;;;;;;;31.13;25.13;;;4.70;99.90;;;;;;5134247;27;20204;-73